Terminal Aerodrome Forecast
Issued by NWS Albany, NY

Home | Current Version | Previous Version | Text Only | Print | Product List | Glossary On
Versions: 1 2 3 4 5 6 7 8 9 10 11 12 13 14 15 16 17 18 19 20 21 22 23 24 25 26 27 28 29 30 31 32 33 34 35 36 37 38 39 40 41 42 43
310
FTUS41 KALY 041738
TAFGFL
TAF
KGFL 041738Z 0418/0518 06005KT P6SM VCSH OVC025
      TEMPO 0418/0422 3SM -RA SCT008 OVC015
     FM050400 04005KT 3SM -DZ BR SCT005 OVC010
     FM051200 03006KT P6SM VCSH SCT008 OVC015
     FM051700 04007KT P6SM SCT015 OVC030=

USA.gov is the U.S. government's official web portal to all federal, state and local government web resources and services.